Darlington, WI

3:36 PM CST en Marzo 06, 2015 (GMT -0600)
KWIMINER1 | Change Station
CLOSE
Current Station
Estación meteorológica personal
Location: Mineral Point, WI
Altura: 1066 ft
Estaciones meteorológicas cercanas

Alt 1066 ft 42.85 °N, 90.18 °W | Updated 6 minutes ago

Despejado
Despejado
28.3 ° F
Sensación térmica 23 ° F
N
5.0
Viento Variable Viento desde OSO
Gusts 15.0 mph

Hoy
Alta -- | Baja -- ° F
--% Posibilidad de precipitaciones
Ayer
Alta -- | Baja -- ° F
Precip. -- pul
6:28 AM 5:55 PM
Luna llena, 99% visible
Presión 30.09 pul
Visibilidad 10.0 Millas
Nubes Despejado
Vientos helados 23 ° F
Punto de rocío 20 ° F
Humedad 71%
Precipitaciones pul
Espesor de la nieve No disponible.
UV 3 de una escala de 12
Polen .20 de una escala de 12
Calidad del aire No disponible.
Flu Activity No disponible.
METAR KMRJ 062110Z AUTO 21015KT 10SM CLR 00/M08 A3009 RMK AO2

More Conditions Fewer Conditions

Presión 30.09 pul
Visibilidad 10.0 Millas
Nubes Despejado
Vientos helados 23 ° F
Punto de rocío 20 ° F
Humedad 71%
Precipitaciones pul
Espesor de la nieve No disponible.
UV 3 de una escala de 12
Polen .20 de una escala de 12
Calidad del aire No disponible.
Flu Activity No disponible.
METAR KMRJ 062110Z AUTO 21015KT 10SM CLR 00/M08 A3009 RMK AO2

More Conditions Fewer Conditions

10-Day Weather Forecast

Almanac

Astronomía

Mar. 06, 2015 Salida Puesta
Hora real
Crepúsculo civil
Crepúsculo náutico
Crepúsculo astronómico
Luna
Horas de luz
Horas de luz
Tomorrow will be .
, % of the Moon is Illuminated

Extremos de hoy

Máximos del estado Bajos del estado

Community

WunderPhotos

Upload Photos

1,803,406 ¡fotos cargadas!

WunderBlogs® & News

Nearby

Calidad del aire

  Calidad del aire Índice AQ Contaminante
Not available.

Grosos de nieve

Estación Profundido Altura

Actividad de terremotos

Ciudad Distance Mag. Tiempo y dato
Magnitud mínima muestra es 2,5.

Temperaturas de aguas costeras

Lugar Temperatura

Estaciones meteorológicas cercanas